Tyrone, Colorado
Current Conditions -  °F | °C
As of 2:54 PM on Wednesday 26 Nov 2014 (Local Time) from KTAD Reporting Station
Clear Clear  
Wind Chill: 46°   Ceiling: Unl
Heat Index: 48°   Visibility: 10mi
Dew Point: 32°   Wind: 5mph
Humidity: 54%   Direction: 140°SE
Pressure: 30.19"   Gusts: NA
Location:  37.5307°N, 104.063°W
Report Text: KTAD 262154Z AUTO 14004KT 10SM CLR 09/00 A3019 RMK AO2 SLP215 T00890000
Loading
Personal Weather Stations






























Interactive Weather Map New forecast layout! Learn more

10-Day Weather Forecast

Advertisements
Track Severe Weather on mobile